createdAt,value
2023-02-04T00:00:13.999Z,0.45
2023-02-04T00:02:41.674Z,0.63
2023-02-04T00:05:09.391Z,0.80
2023-02-04T00:07:36.642Z,0.40
2023-02-04T00:10:05.094Z,0.60
2023-02-04T00:12:32.327Z,0.50
2023-02-04T00:14:59.528Z,0.88
2023-02-04T00:17:26.776Z,0.50
2023-02-04T00:19:54.065Z,0.55
2023-02-04T00:22:21.390Z,0.63
2023-02-04T00:24:50.446Z,0.60
2023-02-04T00:27:17.872Z,0.50
2023-02-04T00:29:45.087Z,0.32
2023-02-04T00:32:12.382Z,0.50
2023-02-04T00:34:39.660Z,0.50
2023-02-04T00:37:06.884Z,0.50
2023-02-04T00:39:34.119Z,0.90
2023-02-04T00:42:01.409Z,0.50
2023-02-04T00:44:28.598Z,0.70
2023-02-04T00:46:55.791Z,0.68
2023-02-04T00:49:23.005Z,0.47
2023-02-04T00:51:51.260Z,0.50
2023-02-04T00:54:18.522Z,0.30
2023-02-04T00:56:45.872Z,0.40
2023-02-04T00:59:13.068Z,0.38
2023-02-04T01:01:40.279Z,0.40
2023-02-04T01:04:07.571Z,0.60
2023-02-04T01:06:35.496Z,0.30
2023-02-04T01:09:03.012Z,0.40
2023-02-04T01:11:31.012Z,0.20
2023-02-04T01:13:58.534Z,0.40
2023-02-04T01:16:26.159Z,0.40
2023-02-04T01:18:55.875Z,0.38
2023-02-04T01:21:24.039Z,0.47
2023-02-04T01:23:51.723Z,0.30
2023-02-04T01:26:22.611Z,0.40
2023-02-04T01:28:49.949Z,0.20
2023-02-04T01:31:17.426Z,0.30
2023-02-04T01:33:44.703Z,0.40
2023-02-04T01:36:11.898Z,0.70
2023-02-04T01:38:39.094Z,0.35
2023-02-04T01:41:06.490Z,0.45
2023-02-04T01:43:34.551Z,0.70
2023-02-04T01:46:02.788Z,0.50
2023-02-04T01:48:30.348Z,0.40
2023-02-04T01:51:08.768Z,0.20
2023-02-04T01:53:36.682Z,0.40
2023-02-04T01:56:12.397Z,0.40
2023-02-04T01:58:39.613Z,0.50
2023-02-04T02:01:12.090Z,0.55
2023-02-04T02:03:39.313Z,0.40
2023-02-04T02:06:09.543Z,0.50
2023-02-04T02:08:37.454Z,0.60
2023-02-04T02:11:04.744Z,0.95
2023-02-04T02:13:31.943Z,0.70
2023-02-04T02:15:59.151Z,0.55
2023-02-04T02:18:26.379Z,0.40
2023-02-04T02:20:53.690Z,0.82
2023-02-04T02:23:24.015Z,0.68
2023-02-04T02:25:51.735Z,0.43
2023-02-04T02:28:20.774Z,0.47
2023-02-04T02:30:49.601Z,0.35
2023-02-04T02:33:18.302Z,0.60
2023-02-04T02:35:48.440Z,0.50
2023-02-04T02:38:16.244Z,0.30
2023-02-04T02:40:43.502Z,0.70
2023-02-04T02:43:14.562Z,0.57
2023-02-04T02:45:41.902Z,0.65
2023-02-04T02:48:10.225Z,0.60
2023-02-04T02:50:37.948Z,0.38
2023-02-04T02:53:05.384Z,0.52
2023-02-04T02:55:32.773Z,0.90
2023-02-04T02:58:00.008Z,0.63
2023-02-04T03:00:28.720Z,0.60
2023-02-04T03:03:22.757Z,0.40
2023-02-04T03:05:53.128Z,0.70
2023-02-04T03:08:20.964Z,0.50
2023-02-04T03:10:48.442Z,0.70
2023-02-04T03:13:16.688Z,0.63
2023-02-04T03:15:45.290Z,0.50
2023-02-04T03:18:13.812Z,0.60
2023-02-04T03:20:41.385Z,0.70
2023-02-04T03:23:09.033Z,0.80
2023-02-04T03:25:36.423Z,0.55
2023-02-04T03:28:03.772Z,0.70
2023-02-04T03:30:31.248Z,0.95
2023-02-04T03:32:58.663Z,0.90
2023-02-04T03:35:25.967Z,1.00
2023-02-04T03:37:53.260Z,1.60
2023-02-04T03:40:20.590Z,2.42
2023-02-04T03:42:47.845Z,2.95
2023-02-04T03:45:15.093Z,1.67
2023-02-04T03:47:42.345Z,1.65
2023-02-04T03:50:12.372Z,0.85
2023-02-04T03:52:40.046Z,0.82
2023-02-04T03:55:07.546Z,0.70
2023-02-04T03:57:34.776Z,0.47
2023-02-04T04:00:02.037Z,0.40
2023-02-04T04:02:29.537Z,0.30
2023-02-04T04:04:56.728Z,0.60
2023-02-04T04:07:23.920Z,0.20
2023-02-04T04:09:51.122Z,0.47
2023-02-04T04:12:18.350Z,0.47
2023-02-04T04:14:45.546Z,0.28
2023-02-04T04:17:12.829Z,0.40
2023-02-04T04:19:40.010Z,0.50
2023-02-04T04:22:07.201Z,0.30
2023-02-04T04:24:34.446Z,0.50
2023-02-04T04:27:01.666Z,0.40
2023-02-04T04:29:28.825Z,0.47
2023-02-04T04:31:56.070Z,1.10
2023-02-04T04:34:23.258Z,0.32
2023-02-04T04:36:50.417Z,0.45
2023-02-04T04:39:17.613Z,0.50
2023-02-04T04:41:44.817Z,0.70
2023-02-04T04:44:12.023Z,0.40
2023-02-04T04:46:40.674Z,0.47
2023-02-04T04:49:07.938Z,0.20
2023-02-04T04:51:35.160Z,1.55
2023-02-04T04:54:02.433Z,0.50
2023-02-04T04:56:29.608Z,0.30
2023-02-04T04:58:56.799Z,1.10
2023-02-04T05:01:24.122Z,0.63
2023-02-04T05:03:51.356Z,1.23
2023-02-04T05:06:18.599Z,1.40
2023-02-04T05:08:45.837Z,1.10
2023-02-04T05:11:13.022Z,1.08
2023-02-04T05:13:40.246Z,1.10
2023-02-04T05:16:07.637Z,0.77
2023-02-04T05:18:34.822Z,0.80
2023-02-04T05:21:02.009Z,1.52
2023-02-04T05:23:29.202Z,1.10
2023-02-04T05:25:56.412Z,2.33
2023-02-04T05:28:23.632Z,2.10
2023-02-04T05:30:50.857Z,1.40
2023-02-04T05:33:18.077Z,1.45
2023-02-04T05:35:45.352Z,1.13
2023-02-04T05:38:12.541Z,1.00
2023-02-04T05:40:39.745Z,1.00
2023-02-04T05:43:07.026Z,0.77
2023-02-04T05:45:34.222Z,0.93
2023-02-04T05:48:01.407Z,0.68
2023-02-04T05:50:28.636Z,0.95
2023-02-04T05:52:56.443Z,1.00
2023-02-04T05:55:23.611Z,0.77
2023-02-04T05:57:50.840Z,1.50
2023-02-04T06:00:18.163Z,1.20
2023-02-04T06:02:45.394Z,1.73
2023-02-04T06:05:12.612Z,1.80
2023-02-04T06:07:39.867Z,1.60
2023-02-04T06:10:07.424Z,1.77
2023-02-04T06:12:34.695Z,1.00
2023-02-04T06:15:01.984Z,1.10
2023-02-04T06:17:29.242Z,1.13
2023-02-04T06:19:56.542Z,1.10
2023-02-04T06:22:24.750Z,0.80
2023-02-04T06:24:52.101Z,1.00
2023-02-04T06:27:23.402Z,0.60
2023-02-04T06:29:51.259Z,1.40
2023-02-04T06:32:19.468Z,1.38
2023-02-04T06:34:47.034Z,1.20
2023-02-04T06:37:15.880Z,1.55
2023-02-04T06:39:43.198Z,0.88
2023-02-04T06:42:10.533Z,0.60
2023-02-04T06:44:37.918Z,1.10
2023-02-04T06:47:05.265Z,0.80
2023-02-04T06:49:32.648Z,0.88
2023-02-04T06:52:00.151Z,1.58
2023-02-04T06:54:27.967Z,1.77
2023-02-04T06:56:55.282Z,1.70
2023-02-04T06:59:23.958Z,1.30
2023-02-04T07:01:51.323Z,1.00
2023-02-04T07:04:20.715Z,1.02
2023-02-04T07:06:47.991Z,0.80
2023-02-04T07:09:15.397Z,0.93
2023-02-04T07:11:42.699Z,0.80
2023-02-04T07:14:10.628Z,0.77
2023-02-04T07:16:38.492Z,1.10
2023-02-04T07:19:05.960Z,1.30
2023-02-04T07:21:33.323Z,1.10
2023-02-04T07:24:00.672Z,0.80
2023-02-04T07:26:28.037Z,0.95
2023-02-04T07:28:55.403Z,1.10
2023-02-04T07:31:24.305Z,1.30
2023-02-04T07:33:51.679Z,1.08
2023-02-04T07:36:19.025Z,0.75
2023-02-04T07:38:46.287Z,1.90
2023-02-04T07:41:13.741Z,0.90
2023-02-04T07:43:41.304Z,1.15
2023-02-04T07:46:08.635Z,1.23
2023-02-04T07:48:36.925Z,1.10
2023-02-04T07:51:04.305Z,0.98
2023-02-04T07:53:31.662Z,1.13
2023-02-04T07:55:58.853Z,1.10
2023-02-04T07:58:26.163Z,1.35
2023-02-04T08:00:53.544Z,0.93
2023-02-04T08:03:20.787Z,0.85
2023-02-04T08:05:48.622Z,0.52
2023-02-04T08:08:16.175Z,1.10
2023-02-04T08:10:43.572Z,1.00
2023-02-04T08:13:10.937Z,1.27
2023-02-04T08:15:38.349Z,0.90
2023-02-04T08:18:05.799Z,1.33
2023-02-04T08:20:33.620Z,1.00
2023-02-04T08:23:01.127Z,0.88
2023-02-04T08:25:29.763Z,1.17
2023-02-04T08:27:57.021Z,1.20
2023-02-04T08:30:24.479Z,1.50
2023-02-04T08:32:51.744Z,0.80
2023-02-04T08:35:19.166Z,1.00
2023-02-04T08:37:46.917Z,1.10
2023-02-04T08:40:14.143Z,1.30
2023-02-04T08:42:41.510Z,1.80
2023-02-04T08:45:09.021Z,0.95
2023-02-04T08:47:36.371Z,1.27
2023-02-04T08:50:03.858Z,1.23
2023-02-04T08:52:31.249Z,1.30
2023-02-04T08:54:58.492Z,0.85
2023-02-04T08:57:25.714Z,1.47
2023-02-04T08:59:53.096Z,1.17
2023-02-04T09:02:20.407Z,1.23
2023-02-04T09:04:48.304Z,0.87
2023-02-04T09:07:15.718Z,1.50
2023-02-04T09:09:43.080Z,1.35
2023-02-04T09:12:10.477Z,1.33
2023-02-04T09:14:37.830Z,1.40
2023-02-04T09:17:05.892Z,1.35
2023-02-04T09:19:33.235Z,1.27
2023-02-04T09:22:00.510Z,1.65
2023-02-04T09:24:27.832Z,1.30
2023-02-04T09:26:55.149Z,1.50
2023-02-04T09:29:22.376Z,1.92
2023-02-04T09:31:49.787Z,1.90
2023-02-04T09:34:17.140Z,1.55
2023-02-04T09:36:44.498Z,1.90
